createdAt,value
2023-04-16T00:01:31.642Z,6.70
2023-04-16T00:03:58.145Z,6.60
2023-04-16T00:06:24.492Z,6.50
2023-04-16T00:08:51.030Z,6.30
2023-04-16T00:11:17.705Z,6.20
2023-04-16T00:13:44.049Z,6.20
2023-04-16T00:16:10.686Z,6.20
2023-04-16T00:18:36.953Z,6.20
2023-04-16T00:21:04.063Z,6.20
2023-04-16T00:23:30.338Z,6.10
2023-04-16T00:25:59.484Z,6.00
2023-04-16T00:28:26.909Z,5.90
2023-04-16T00:30:53.813Z,5.80
2023-04-16T00:33:20.088Z,5.70
2023-04-16T00:35:46.793Z,5.50
2023-04-16T00:38:14.032Z,5.50
2023-04-16T00:40:40.167Z,5.50
2023-04-16T00:43:06.551Z,5.60
2023-04-16T00:45:39.627Z,5.50
2023-04-16T00:48:06.181Z,5.70
2023-04-16T00:50:32.543Z,6.20
2023-04-16T00:52:58.845Z,6.30
2023-04-16T00:55:25.226Z,6.40
2023-04-16T00:57:51.410Z,6.50
2023-04-16T01:00:17.582Z,6.20
2023-04-16T01:02:44.294Z,6.20
2023-04-16T01:05:10.681Z,6.10
2023-04-16T01:07:37.233Z,6.00
2023-04-16T01:10:05.077Z,5.80
2023-04-16T01:12:31.812Z,6.10
2023-04-16T01:14:57.966Z,6.20
2023-04-16T01:17:24.452Z,6.30
2023-04-16T01:19:50.630Z,6.40
2023-04-16T01:22:18.179Z,6.30
2023-04-16T01:24:44.838Z,6.40
2023-04-16T01:27:11.039Z,6.30
2023-04-16T01:29:37.177Z,6.10
2023-04-16T01:32:03.379Z,6.00
2023-04-16T01:34:29.789Z,5.80
2023-04-16T01:36:56.208Z,5.60
2023-04-16T01:39:22.384Z,5.60
2023-04-16T01:41:48.568Z,5.40
2023-04-16T01:44:15.096Z,5.30
2023-04-16T01:46:41.731Z,5.20
2023-04-16T01:49:08.679Z,5.10
2023-04-16T01:51:35.262Z,5.10
2023-04-16T01:54:01.415Z,5.00
2023-04-16T01:56:27.592Z,5.00
2023-04-16T01:58:53.774Z,4.90
2023-04-16T02:01:20.019Z,4.90
2023-04-16T02:03:46.626Z,4.80
2023-04-16T02:06:13.221Z,4.80
2023-04-16T02:08:40.185Z,4.70
2023-04-16T02:11:06.446Z,4.80
2023-04-16T02:13:32.597Z,4.70
2023-04-16T02:15:58.842Z,4.60
2023-04-16T02:18:25.048Z,4.50
2023-04-16T02:20:51.627Z,4.50
2023-04-16T02:23:17.768Z,4.60
2023-04-16T02:25:45.461Z,4.60
2023-04-16T02:28:13.216Z,4.50
2023-04-16T02:30:39.715Z,4.50
2023-04-16T02:33:06.814Z,4.40
2023-04-16T02:35:33.624Z,4.40
2023-04-16T02:37:59.815Z,4.40
2023-04-16T02:40:26.352Z,4.40
2023-04-16T02:42:53.050Z,4.40
2023-04-16T02:45:19.868Z,4.30
2023-04-16T02:47:46.392Z,4.30
2023-04-16T02:50:13.028Z,4.20
2023-04-16T02:52:39.174Z,4.10
2023-04-16T02:55:06.180Z,4.10
2023-04-16T02:57:33.224Z,4.10
2023-04-16T02:59:59.441Z,4.10
2023-04-16T03:02:26.486Z,4.10
2023-04-16T03:04:55.790Z,4.10
2023-04-16T03:07:21.942Z,4.10
2023-04-16T03:09:48.104Z,4.00
2023-04-16T03:12:14.482Z,1.50
2023-04-16T03:14:40.689Z,4.00
2023-04-16T03:17:06.841Z,4.10
2023-04-16T03:19:33.013Z,4.10
2023-04-16T03:22:00.205Z,4.30
2023-04-16T03:24:27.421Z,4.40
2023-04-16T03:26:53.609Z,4.80
2023-04-16T03:29:19.768Z,5.10
2023-04-16T03:31:45.948Z,5.10
2023-04-16T03:34:12.150Z,5.10
2023-04-16T03:36:38.301Z,5.20
2023-04-16T03:39:04.512Z,5.20
2023-04-16T03:41:30.744Z,5.30
2023-04-16T03:43:56.865Z,5.20
2023-04-16T03:46:23.648Z,5.10
2023-04-16T03:48:49.795Z,5.30
2023-04-16T03:51:15.983Z,5.30
2023-04-16T03:53:42.164Z,5.40
2023-04-16T03:56:08.499Z,5.40
2023-04-16T03:58:34.629Z,5.40
2023-04-16T04:01:00.810Z,5.30
2023-04-16T04:03:27.294Z,5.20
2023-04-16T04:05:53.658Z,5.20
2023-04-16T04:08:20.086Z,5.20
2023-04-16T04:10:46.308Z,5.20
2023-04-16T04:13:13.151Z,5.20
2023-04-16T04:15:39.313Z,5.20
2023-04-16T04:18:05.524Z,5.30
2023-04-16T04:20:31.798Z,5.30
2023-04-16T04:22:58.574Z,5.40
2023-04-16T04:25:24.903Z,5.60
2023-04-16T04:27:51.036Z,5.80
2023-04-16T04:30:17.306Z,5.80
2023-04-16T04:32:43.468Z,6.00
2023-04-16T04:35:10.013Z,6.10
2023-04-16T04:37:36.225Z,6.10
2023-04-16T04:40:02.410Z,6.20
2023-04-16T04:42:28.530Z,6.30
2023-04-16T04:44:54.680Z,6.30
2023-04-16T04:47:20.876Z,6.30
2023-04-16T04:49:47.477Z,6.30
2023-04-16T04:52:13.699Z,6.30
2023-04-16T04:54:40.959Z,6.40
2023-04-16T04:57:07.719Z,6.50
2023-04-16T04:59:33.868Z,6.60
2023-04-16T05:02:01.715Z,6.70
2023-04-16T05:04:27.966Z,6.60
2023-04-16T05:06:54.266Z,6.70
2023-04-16T05:09:20.571Z,6.90
2023-04-16T05:11:46.746Z,7.10
2023-04-16T05:14:12.866Z,7.40
2023-04-16T05:16:39.063Z,7.60
2023-04-16T05:19:05.408Z,7.80
2023-04-16T05:21:31.621Z,8.10
2023-04-16T05:23:58.189Z,8.20
2023-04-16T05:26:24.779Z,8.30
2023-04-16T05:28:50.948Z,8.60
2023-04-16T05:31:17.617Z,8.80
2023-04-16T05:33:43.929Z,8.70
2023-04-16T05:36:10.297Z,8.80
2023-04-16T05:38:36.426Z,9.00
2023-04-16T05:41:02.687Z,9.10
2023-04-16T05:43:28.787Z,9.20
2023-04-16T05:45:54.951Z,9.50
2023-04-16T05:48:21.166Z,9.70
2023-04-16T05:50:48.703Z,10.00
2023-04-16T05:53:14.880Z,10.30
2023-04-16T05:55:41.111Z,10.70
2023-04-16T05:58:07.270Z,11.10
2023-04-16T06:00:33.593Z,11.40
2023-04-16T06:03:00.004Z,12.50
2023-04-16T06:05:27.009Z,13.50
2023-04-16T06:07:53.668Z,13.30
2023-04-16T06:10:20.272Z,13.80
2023-04-16T06:12:46.404Z,12.90
2023-04-16T06:15:12.599Z,12.70
2023-04-16T06:17:39.097Z,12.70
2023-04-16T06:20:06.159Z,13.40
2023-04-16T06:22:32.377Z,14.00
2023-04-16T06:24:58.934Z,13.40
2023-04-16T06:27:25.274Z,13.50
2023-04-16T06:29:51.503Z,15.40
2023-04-16T06:32:17.751Z,16.70
2023-04-16T06:34:44.048Z,17.80
2023-04-16T06:37:10.779Z,19.00
2023-04-16T06:39:37.139Z,18.50
2023-04-16T06:42:03.470Z,17.70
2023-04-16T06:44:30.084Z,18.40
2023-04-16T06:46:56.266Z,20.00
2023-04-16T06:49:22.498Z,18.30
2023-04-16T06:51:48.657Z,17.50
2023-04-16T06:54:14.897Z,20.10
2023-04-16T06:56:41.088Z,21.60
2023-04-16T06:59:07.555Z,22.70
2023-04-16T07:01:34.420Z,23.60
2023-04-16T07:04:02.310Z,23.40
2023-04-16T07:06:29.096Z,23.30
2023-04-16T07:08:55.304Z,23.70
2023-04-16T07:11:22.331Z,24.10
2023-04-16T07:13:50.645Z,24.10
2023-04-16T07:16:17.591Z,24.30
2023-04-16T07:18:43.953Z,22.00
2023-04-16T07:21:10.562Z,23.30
2023-04-16T07:23:36.752Z,24.20
2023-04-16T07:26:03.006Z,24.60
2023-04-16T07:28:29.124Z,23.20
2023-04-16T07:30:55.405Z,23.10
2023-04-16T07:33:21.594Z,23.50
2023-04-16T07:35:47.875Z,23.20
2023-04-16T07:38:15.818Z,23.60
2023-04-16T07:40:41.962Z,20.70
2023-04-16T07:43:08.264Z,21.40
2023-04-16T07:45:34.627Z,21.70
2023-04-16T07:48:01.321Z,21.10
2023-04-16T07:50:27.580Z,20.10
2023-04-16T07:52:53.725Z,18.80
2023-04-16T07:55:19.999Z,16.90
2023-04-16T07:57:46.156Z,15.90
2023-04-16T08:00:12.797Z,17.80
2023-04-16T08:02:40.413Z,17.90
2023-04-16T08:05:07.081Z,16.90
2023-04-16T08:07:34.584Z,19.70
2023-04-16T08:10:01.630Z,21.20
2023-04-16T08:12:28.967Z,20.30
2023-04-16T08:14:56.378Z,20.10
2023-04-16T08:17:22.687Z,17.60
2023-04-16T08:19:49.354Z,19.00
2023-04-16T08:22:16.128Z,19.40
2023-04-16T08:24:42.267Z,18.40
2023-04-16T08:27:18.380Z,20.10
2023-04-16T08:29:45.661Z,17.70
2023-04-16T08:32:11.915Z,18.00
2023-04-16T08:34:38.140Z,17.60
2023-04-16T08:37:04.334Z,19.00
2023-04-16T08:39:30.507Z,18.60
2023-04-16T08:41:56.649Z,17.30
2023-04-16T08:44:27.767Z,17.40
2023-04-16T08:46:58.275Z,19.00
2023-04-16T08:49:27.765Z,19.60
2023-04-16T08:51:55.294Z,19.20
2023-04-16T08:54:58.162Z,17.40
2023-04-16T08:57:26.380Z,16.10
2023-04-16T08:59:54.205Z,16.00
2023-04-16T09:02:20.969Z,16.50
2023-04-16T09:04:48.050Z,17.90
2023-04-16T09:07:14.328Z,18.10
2023-04-16T09:09:40.601Z,16.00
2023-04-16T09:12:06.758Z,15.60
2023-04-16T09:14:37.609Z,16.40
2023-04-16T09:17:05.450Z,17.50
2023-04-16T09:19:31.606Z,17.00
2023-04-16T09:21:58.048Z,17.30
2023-04-16T09:24:24.285Z,16.90
2023-04-16T09:26:52.035Z,16.70
2023-04-16T09:29:35.754Z,17.10
2023-04-16T09:32:03.912Z,16.70
2023-04-16T09:34:32.347Z,16.50
2023-04-16T09:37:20.184Z,16.30
2023-04-16T09:39:53.916Z,16.50
2023-04-16T09:42:24.673Z,16.50
2023-04-16T09:44:51.815Z,16.40
2023-04-16T09:47:18.178Z,16.50
2023-04-16T09:49:45.050Z,16.50
2023-04-16T09:52:19.435Z,16.60
2023-04-16T09:54:54.038Z,17.00
2023-04-16T09:57:21.713Z,16.70
2023-04-16T09:59:48.945Z,17.00
2023-04-16T10:02:16.581Z,17.20
2023-04-16T10:04:51.676Z,17.40
2023-04-16T10:07:19.222Z,17.60
2023-04-16T10:09:47.866Z,16.80
2023-04-16T10:12:14.256Z,16.80
2023-04-16T10:14:40.688Z,17.00
2023-04-16T10:17:07.815Z,17.00
2023-04-16T10:19:34.545Z,17.00
2023-04-16T10:22:03.778Z,16.80
2023-04-16T10:24:31.440Z,16.60
2023-04-16T10:26:58.017Z,15.80
2023-04-16T10:29:25.408Z,15.40
2023-04-16T10:31:52.965Z,15.50
2023-04-16T10:34:20.591Z,16.00
2023-04-16T10:36:52.241Z,16.20
2023-04-16T10:39:22.375Z,17.00
2023-04-16T10:41:49.094Z,17.50
2023-04-16T10:44:17.606Z,17.40
2023-04-16T10:46:50.242Z,17.20
2023-04-16T10:49:26.435Z,17.20
2023-04-16T10:51:59.622Z,17.50
2023-04-16T10:54:29.951Z,17.60
2023-04-16T10:57:01.220Z,17.70
2023-04-16T10:59:34.115Z,18.40
2023-04-16T11:02:02.533Z,18.40
2023-04-16T11:04:39.231Z,17.90
2023-04-16T11:07:46.963Z,18.20
2023-04-16T11:10:13.824Z,18.20
2023-04-16T11:12:45.187Z,18.30
2023-04-16T11:15:15.184Z,18.30
2023-04-16T11:17:42.846Z,18.30
2023-04-16T11:20:20.919Z,18.70
2023-04-16T11:22:51.252Z,18.40
2023-04-16T11:25:24.402Z,18.30
2023-04-16T11:27:51.201Z,17.60
2023-04-16T11:30:17.595Z,16.80
2023-04-16T11:32:44.207Z,16.30
2023-04-16T11:35:17.184Z,16.50
2023-04-16T11:37:43.622Z,16.10
2023-04-16T11:40:10.459Z,16.10
2023-04-16T11:42:41.576Z,17.60
2023-04-16T11:45:08.875Z,17.60
2023-04-16T11:47:56.054Z,17.20
2023-04-16T11:50:26.891Z,16.80
2023-04-16T11:53:02.434Z,16.90
2023-04-16T11:55:29.352Z,17.20
2023-04-16T11:57:56.102Z,17.70
2023-04-16T12:00:24.261Z,17.10
2023-04-16T12:02:56.659Z,17.60
2023-04-16T12:05:27.963Z,17.70
2023-04-16T12:07:54.669Z,16.00
2023-04-16T12:10:21.060Z,16.40
2023-04-16T12:12:47.214Z,17.10
2023-04-16T12:15:13.405Z,16.50
2023-04-16T12:17:39.740Z,16.40
2023-04-16T12:20:13.307Z,16.80
2023-04-16T12:22:40.527Z,17.60
2023-04-16T12:25:16.562Z,17.40
2023-04-16T12:27:53.474Z,17.70
2023-04-16T12:30:21.726Z,17.70
2023-04-16T12:32:49.897Z,17.90
2023-04-16T12:35:33.292Z,18.40
2023-04-16T12:37:59.862Z,18.50
2023-04-16T12:40:26.322Z,18.00
2023-04-16T12:42:52.540Z,17.10
2023-04-16T12:45:18.737Z,17.10
2023-04-16T12:47:45.520Z,16.60
2023-04-16T12:50:11.890Z,16.40
2023-04-16T12:52:38.298Z,16.30
2023-04-16T12:55:05.073Z,16.50
2023-04-16T12:57:31.480Z,17.00
2023-04-16T12:59:57.867Z,17.50
2023-04-16T13:02:24.460Z,17.30
2023-04-16T13:04:51.644Z,17.90
2023-04-16T13:07:18.075Z,17.30
2023-04-16T13:09:44.843Z,17.50
2023-04-16T13:12:11.184Z,17.90
2023-04-16T13:14:37.768Z,17.90
2023-04-16T13:17:04.053Z,17.70
2023-04-16T13:19:30.520Z,18.00
2023-04-16T13:21:57.316Z,17.50
2023-04-16T13:24:23.831Z,17.80
2023-04-16T13:26:51.822Z,18.20
2023-04-16T13:29:19.102Z,17.70
2023-04-16T13:31:45.933Z,17.10
2023-04-16T13:34:12.316Z,16.70
2023-04-16T13:36:38.988Z,16.50
2023-04-16T13:39:10.511Z,16.50
2023-04-16T13:41:37.882Z,16.20
2023-04-16T13:44:04.350Z,16.10
2023-04-16T13:46:31.049Z,15.90
2023-04-16T13:48:58.528Z,15.60
2023-04-16T13:51:25.525Z,15.50
2023-04-16T13:53:53.339Z,15.40
2023-04-16T13:56:19.629Z,15.20
2023-04-16T13:58:46.345Z,15.20
2023-04-16T14:01:12.751Z,15.20
2023-04-16T14:03:42.653Z,15.20
2023-04-16T14:06:08.935Z,15.30
2023-04-16T14:08:35.674Z,15.30
2023-04-16T14:11:02.052Z,15.50
2023-04-16T14:13:28.440Z,15.70
2023-04-16T14:15:55.040Z,15.70
2023-04-16T14:18:21.318Z,15.60
2023-04-16T14:20:47.704Z,15.50
2023-04-16T14:23:13.977Z,15.40
2023-04-16T14:25:40.202Z,15.40
2023-04-16T14:28:06.478Z,15.40
2023-04-16T14:30:32.689Z,15.50
2023-04-16T14:33:01.336Z,15.50
2023-04-16T14:35:28.550Z,15.50
2023-04-16T14:37:55.474Z,15.50
2023-04-16T14:40:22.738Z,15.40
2023-04-16T14:42:49.232Z,15.60
2023-04-16T14:45:15.523Z,15.60
2023-04-16T14:47:47.061Z,15.60
2023-04-16T14:50:13.769Z,15.60
2023-04-16T14:52:40.922Z,15.60
2023-04-16T14:55:08.513Z,15.60
2023-04-16T14:57:35.439Z,15.70
2023-04-16T15:00:01.884Z,15.60
2023-04-16T15:02:28.231Z,15.70
2023-04-16T15:04:54.706Z,15.70
2023-04-16T15:07:21.448Z,15.70
2023-04-16T15:09:50.933Z,15.40
2023-04-16T15:12:19.076Z,15.30
2023-04-16T15:14:47.197Z,15.40
2023-04-16T15:17:13.640Z,15.50
2023-04-16T15:19:40.523Z,15.30
2023-04-16T15:22:07.499Z,15.20
2023-04-16T15:24:33.691Z,15.20
2023-04-16T15:27:01.849Z,15.20
2023-04-16T15:29:28.850Z,15.20
2023-04-16T15:31:55.520Z,15.30
2023-04-16T15:34:21.778Z,15.30
2023-04-16T15:36:48.055Z,15.30
2023-04-16T15:39:14.341Z,15.30
2023-04-16T15:41:53.601Z,15.30
2023-04-16T15:44:25.886Z,15.30
2023-04-16T15:46:52.572Z,15.20
2023-04-16T15:49:19.137Z,15.10
2023-04-16T15:51:45.821Z,15.10
2023-04-16T15:54:12.255Z,15.20
2023-04-16T15:56:38.928Z,15.40
2023-04-16T15:59:05.878Z,15.70
2023-04-16T16:01:32.162Z,15.90
2023-04-16T16:04:03.003Z,16.00
2023-04-16T16:06:29.661Z,16.00
2023-04-16T16:08:56.179Z,16.10
2023-04-16T16:11:22.410Z,16.00
2023-04-16T16:13:48.660Z,15.70
2023-04-16T16:16:15.463Z,15.70
2023-04-16T16:18:41.703Z,15.70
2023-04-16T16:21:08.093Z,15.60
2023-04-16T16:23:34.456Z,15.70
2023-04-16T16:26:01.193Z,15.60
2023-04-16T16:28:28.795Z,15.50
2023-04-16T16:30:57.970Z,15.40
2023-04-16T16:33:24.756Z,15.10
2023-04-16T16:35:52.288Z,14.90
2023-04-16T16:38:18.551Z,14.80
2023-04-16T16:40:44.840Z,14.60
2023-04-16T16:43:11.238Z,14.40
2023-04-16T16:45:37.995Z,14.30
2023-04-16T16:48:04.489Z,14.00
2023-04-16T16:50:32.085Z,13.90
2023-04-16T16:52:59.063Z,13.70
2023-04-16T16:55:25.519Z,13.60
2023-04-16T16:57:52.098Z,13.40
2023-04-16T17:00:21.067Z,13.20
2023-04-16T17:02:50.337Z,13.10
2023-04-16T17:05:16.788Z,13.10
2023-04-16T17:07:42.956Z,13.00
2023-04-16T17:10:12.935Z,12.80
2023-04-16T17:12:39.604Z,12.60
2023-04-16T17:15:07.475Z,12.50
2023-04-16T17:17:37.982Z,12.30
2023-04-16T17:20:09.572Z,12.10
2023-04-16T17:22:37.504Z,12.00
2023-04-16T17:25:04.711Z,11.80
2023-04-16T17:27:33.815Z,11.60
2023-04-16T17:30:01.739Z,11.40
2023-04-16T17:32:28.962Z,11.20
2023-04-16T17:34:55.462Z,11.00
2023-04-16T17:37:22.951Z,10.90
2023-04-16T17:39:49.815Z,10.80
2023-04-16T17:42:17.045Z,10.80
2023-04-16T17:44:43.384Z,10.80
2023-04-16T17:47:10.277Z,10.90
2023-04-16T17:49:37.001Z,11.10
2023-04-16T17:52:03.324Z,11.10
2023-04-16T17:54:30.467Z,11.10
2023-04-16T17:56:58.521Z,11.40
2023-04-16T17:59:24.755Z,11.60
2023-04-16T18:01:51.080Z,11.60
2023-04-16T18:04:17.734Z,11.80
2023-04-16T18:06:44.482Z,11.80
2023-04-16T18:09:11.800Z,11.90
2023-04-16T18:11:38.446Z,11.90
2023-04-16T18:14:04.693Z,11.80
2023-04-16T18:16:31.539Z,11.80
2023-04-16T18:18:58.948Z,11.80
2023-04-16T18:21:26.227Z,11.80
2023-04-16T18:23:53.590Z,11.60
2023-04-16T18:26:22.505Z,11.60
2023-04-16T18:28:49.685Z,11.50
2023-04-16T18:31:19.061Z,11.60
2023-04-16T18:33:56.521Z,11.70
2023-04-16T18:36:26.204Z,11.80
2023-04-16T18:39:01.042Z,11.80
2023-04-16T18:41:28.499Z,11.80
2023-04-16T18:43:56.486Z,11.80
2023-04-16T18:46:23.080Z,11.80
2023-04-16T18:48:49.361Z,11.90
2023-04-16T18:51:16.605Z,11.90
2023-04-16T18:53:44.782Z,11.80
2023-04-16T18:56:11.258Z,11.70
2023-04-16T18:58:38.220Z,11.80
2023-04-16T19:01:07.529Z,11.70
2023-04-16T19:03:34.045Z,11.70
2023-04-16T19:06:00.603Z,11.60
2023-04-16T19:08:27.726Z,11.60
2023-04-16T19:10:54.373Z,11.60
2023-04-16T19:13:20.597Z,11.60
2023-04-16T19:15:47.556Z,11.80
2023-04-16T19:18:16.868Z,11.80
2023-04-16T19:20:43.923Z,11.80
2023-04-16T19:23:10.982Z,11.70
2023-04-16T19:25:38.934Z,11.70
2023-04-16T19:28:05.634Z,11.60
2023-04-16T19:30:32.357Z,11.60
2023-04-16T19:32:59.758Z,11.60
2023-04-16T19:35:26.586Z,11.50
2023-04-16T19:37:56.544Z,11.50
2023-04-16T19:40:22.913Z,11.50
2023-04-16T19:42:49.240Z,11.40
2023-04-16T19:45:17.108Z,11.40
2023-04-16T19:47:43.608Z,11.30
2023-04-16T19:50:10.565Z,11.20
2023-04-16T19:52:38.417Z,11.10
2023-04-16T19:55:06.388Z,11.00
2023-04-16T19:57:32.726Z,10.90
2023-04-16T19:59:59.517Z,10.70
2023-04-16T20:02:26.532Z,10.60
2023-04-16T20:04:54.032Z,10.50
2023-04-16T20:07:21.667Z,10.40
2023-04-16T20:09:48.297Z,10.20
2023-04-16T20:12:15.092Z,10.20
2023-04-16T20:14:44.464Z,10.00
2023-04-16T20:17:11.661Z,9.80
2023-04-16T20:19:38.154Z,9.80
2023-04-16T20:22:06.004Z,9.70
2023-04-16T20:24:32.739Z,9.80
2023-04-16T20:26:59.213Z,9.70
2023-04-16T20:29:26.779Z,9.70
2023-04-16T20:31:53.496Z,9.60
2023-04-16T20:34:19.977Z,9.60
2023-04-16T20:36:46.575Z,9.60
2023-04-16T20:39:13.627Z,9.60
2023-04-16T20:41:44.172Z,9.70
2023-04-16T20:44:17.514Z,9.60
2023-04-16T20:46:49.047Z,9.60
2023-04-16T20:49:17.957Z,9.60
2023-04-16T20:51:44.501Z,9.60
2023-04-16T20:54:10.859Z,9.60
2023-04-16T20:56:37.619Z,9.50
2023-04-16T20:59:04.648Z,9.50
2023-04-16T21:01:31.619Z,9.60
2023-04-16T21:03:58.692Z,9.50
2023-04-16T21:06:25.224Z,9.60
2023-04-16T21:08:53.389Z,9.70
2023-04-16T21:11:20.048Z,9.70
2023-04-16T21:13:46.542Z,9.70
2023-04-16T21:16:12.847Z,9.70
2023-04-16T21:18:39.488Z,9.70
2023-04-16T21:21:06.092Z,9.70
2023-04-16T21:23:32.276Z,9.70
2023-04-16T21:25:58.458Z,9.70
2023-04-16T21:28:24.687Z,9.70
2023-04-16T21:30:51.608Z,9.70
2023-04-16T21:33:18.087Z,9.80
2023-04-16T21:35:44.372Z,9.80
2023-04-16T21:38:10.705Z,9.80
2023-04-16T21:40:37.745Z,9.80
2023-04-16T21:43:03.988Z,9.70
2023-04-16T21:45:30.653Z,9.70
2023-04-16T21:47:56.961Z,9.70
2023-04-16T21:50:23.513Z,9.80
2023-04-16T21:52:49.893Z,9.80
2023-04-16T21:55:16.543Z,9.80
2023-04-16T21:57:42.798Z,9.70
2023-04-16T22:00:13.302Z,9.60
2023-04-16T22:02:42.630Z,9.70
2023-04-16T22:05:10.144Z,9.60
2023-04-16T22:07:37.115Z,9.60
2023-04-16T22:10:04.119Z,9.60
2023-04-16T22:12:30.568Z,9.60
2023-04-16T22:15:02.482Z,9.60
2023-04-16T22:17:29.432Z,9.60
2023-04-16T22:19:56.641Z,9.50
2023-04-16T22:22:22.959Z,9.50
2023-04-16T22:24:49.335Z,9.40
2023-04-16T22:27:15.619Z,9.40
2023-04-16T22:29:41.871Z,9.40
2023-04-16T22:32:08.235Z,9.40
2023-04-16T22:34:34.897Z,9.30
2023-04-16T22:37:02.478Z,9.40
2023-04-16T22:39:30.280Z,9.40
2023-04-16T22:41:56.453Z,9.50
2023-04-16T22:44:22.631Z,9.60
2023-04-16T22:46:48.829Z,9.60
2023-04-16T22:49:15.031Z,9.60
2023-04-16T22:51:41.305Z,9.60
2023-04-16T22:54:08.518Z,9.70
2023-04-16T22:56:34.979Z,9.60
2023-04-16T22:59:01.395Z,9.60
2023-04-16T23:01:27.640Z,9.60
2023-04-16T23:03:53.808Z,9.50
2023-04-16T23:06:20.130Z,9.40
2023-04-16T23:08:46.315Z,9.40
2023-04-16T23:11:12.522Z,9.30
2023-04-16T23:13:38.665Z,9.20
2023-04-16T23:16:06.173Z,9.10
2023-04-16T23:18:32.376Z,9.10
2023-04-16T23:20:58.559Z,9.10
2023-04-16T23:23:24.828Z,9.10
2023-04-16T23:25:53.909Z,9.00
2023-04-16T23:28:20.809Z,10.00
2023-04-16T23:30:50.386Z,6.90
2023-04-16T23:33:16.610Z,8.90
2023-04-16T23:35:42.869Z,8.90
2023-04-16T23:38:09.295Z,9.00
2023-04-16T23:40:35.463Z,9.20
2023-04-16T23:43:01.641Z,9.20
2023-04-16T23:45:27.911Z,9.20
2023-04-16T23:47:54.385Z,9.20
2023-04-16T23:50:20.567Z,9.30
2023-04-16T23:52:46.873Z,9.20
2023-04-16T23:55:13.032Z,9.30
2023-04-16T23:57:39.272Z,10.10
